Station info - map view · info · telemetry · weather · raw · status · beacons · messages · bulletins · browse · moving · my account
Callsign, ship name or locator: Clear       
It is possible to search using wildcards (*?) after a prefix. Example: OH*
APRS station 7N2XKD-9 - show graphs
Map loading...
Mic-E message: Off duty
Location: 35°26.41' N 138°44.18' E - locator PM95IK85IP - show map - static map
4.3 miles Southeast bearing 141° from Fujikawaguchiko, Japan [?]
15.6 miles South bearing 158° from Isawa, Yamanashi, Japan
51.0 miles West bearing 270° from Yokohama-shi, Kanagawa, Japan
56.4 miles West bearing 252° from Tokyo, Tōkyō, Japan
Last position: 2020-10-11 00:34:19 EDT (20d 11h44m ago)
2020-10-11 13:34:19 JST local time at Fujikawaguchiko, Japan [?]
Altitude: 4045 ft
Course: 211°
Speed: 0 MPH
Device: Yaesu: VX-8 (ht)
Last path: 7N2XKD-9>SURVT1 via WIDE1-1,qAS,7L4VOH-10 (good)
Positions stored: 1468
Stations near current position of 7N2XKD-9 - show more
callsign distance last heard - EDT      callsign distance last heard - EDT
7L3UDE-93.5 miles 6°2020-10-31 01:35:53 JA/YN-0534.1 miles 337°2020-10-24 18:29:01
7J1YAK-25.0 miles 46°2020-10-31 11:16:48 JG1EPO-75.0 miles 46°2020-10-11 00:43:59
7L4VOH-105.8 miles 357°2020-10-31 11:59:02 JJ1PVD-97.9 miles 97°2020-10-25 01:08:08
JA/YN-0878.2 miles 55°2020-10-11 01:22:23 JF1NDT/18.5 miles 68°2020-10-24 22:29:18
JA/YN-0418.5 miles 68°2020-10-24 19:20:46 7L4VOH-78.5 miles 359°2020-10-24 01:41:21
JA/YN-0798.5 miles 354°2020-10-24 02:08:44 JA/YN-0899.6 miles 331°2020-10-02 23:52:06
JA/YN-0839.9 miles 348°2020-10-22 02:57:55 JL3VSK-710.3 miles 129°2020-10-03 08:36:31
JA/YN-04611.5 miles 6°2020-10-22 03:10:23 JS2JKE-511.9 miles 192°2020-10-30 20:08:06
JA/YN-05612.5 miles 296°2020-10-23 22:50:23 JN2IIC-912.9 miles 131°2020-10-31 05:27:55
JH2SAP-914.1 miles 126°2020-10-31 03:09:52 JQ2LWI-514.2 miles 218°2020-10-29 20:48:24
Stations which heard 7N2XKD-9 directly on radio –
callsign pkts first heard - EDT last heard longest (tx => rx) longest at - EDT
JJ1CZU-1 2 2020-10-03 20:48:46 2020-10-03 21:31:37 PM96EB > PM96MM 50.4 miles 51° 2020-10-03 21:31:37
JA0ZJX-10 3 2020-10-03 22:57:15 2020-10-04 02:20:08 PM95DX > PM86XE 22.6 miles 311° 2020-10-04 02:14:54
JA2YEP-1 1 2020-10-03 22:40:15 2020-10-03 22:40:15 PM96DB > PM84GU 130.6 miles 230° 2020-10-03 22:40:15
JA1YFL-10 70 2020-10-03 02:45:36 2020-10-04 06:33:44 PM95DV > PM95GQ 20.3 miles 137° 2020-10-04 03:10:46
JI1KAV-1 1 2020-10-03 19:28:20 2020-10-03 19:28:20 PM96EB > PM96NH 45.0 miles 65° 2020-10-03 19:28:20
JG0BGW-1 7 2020-10-03 19:02:52 2020-10-04 02:54:21 PM96EB > PM96AA 17.9 miles 262° 2020-10-03 19:21:56
JH0YKS-1 1 2020-10-03 22:57:16 2020-10-03 22:57:16 PM96DB > PM86WO 44.9 miles 327° 2020-10-03 22:57:16
JR0CST-10 59 2020-10-03 18:45:57 2020-10-04 02:57:20 PM96DB > PM95CX 9.1 miles 241° 2020-10-03 22:08:33
JN1JTN-1 6 2020-10-03 19:28:21 2020-10-03 23:52:13 PM96EB > PM96NK 48.8 miles 58° 2020-10-03 23:52:13
7L4VOH-10 20 2020-10-03 02:25:47 2020-10-11 00:34:19 PM95FR > PM95IM 20.6 miles 135° 2020-10-04 03:55:52
JE0GNV-10 24 2020-10-03 19:04:53 2020-10-04 02:34:10 PM96EB > PM85XW 22.6 miles 248° 2020-10-03 22:06:49
JR0QUR-10 4 2020-10-03 19:10:19 2020-10-03 22:50:11 PM96DB > PM85XR 30.8 miles 226° 2020-10-03 19:17:15
JQ1ZON-1 27 2020-10-03 03:02:50 2020-10-04 06:31:57 PM95DV > PM95FN 23.7 miles 157° 2020-10-04 03:09:53
JG1PNO-10 7 2020-10-03 19:25:07 2020-10-03 22:04:49 PM96EB > PM96NK 48.6 miles 57° 2020-10-03 22:04:49
JO1PYV-1 5 2020-10-04 03:33:51 2020-10-04 05:28:58 PM95FT > PM95GQ 12.2 miles 153° 2020-10-04 03:33:51

Only position packets which were originated by the station are shown here. The range statistics show some extra long hops, because some digipeaters do not correctly add themselves to the digipeater path. Please check the raw packets.
About this site
This page shows real-time information collected from the Automatic Position Reporting System Internet network (APRS-IS). APRS is used by amateur (ham) radio operators to transmit real-time position information, weather data, telemetry and messages over the radio. A vehicle equipped with a GPS receiver, a VHF transmitter or HF transceiver and a small computer device called a tracker transmits it's location, speed and course in a small data packet, which is then received by a nearby iGate receiving site which forwards the packet on the Internet. Systems connected to the Internet can send information on the APRS-IS without a radio transmitter, or collect and display information transmitted anywhere in the world.
User guide · FAQ · Blog · Discussion group · Linking to aprs.fi · AIS sites · Service status · Database statistics · Advertising on aprs.fi · Technical details · API · Change log · Planned changes · Credits and thanks · Terms Of Service · iPhone/iPad APRS